Time;durP1;ratioP1;P1;durP2;ratioP2;P2;SDS_P1;SDS_P2;PMS_P1;PMS_P2;Temp;Humidity;BMP_temperature;BMP_pressure;BME280_temperature;BME280_humidity;BME280_pressure;Samples;Min_cycle;Max_cycle;Signal;HPM_P1;HPM_P2
2021/03/07 00:01:54;;;;;;;3.77;2.17;;;;;;;;;;5093153;28;20055;-55
2021/03/07 00:04:21;;;;;;;3.70;2.40;;;;;;;;;;5093354;28;20020;-55
2021/03/07 00:06:48;;;;;;;4.17;2.43;;;;;;;;;;5075125;28;20110;-55
2021/03/07 00:09:15;;;;;;;4.90;3.10;;;;;;;;;;5093304;28;20035;-55
2021/03/07 00:11:41;;;;;;;7.17;2.60;;;;;;;;;;5093054;28;20038;-55
2021/03/07 00:14:08;;;;;;;6.73;2.90;;;;;;;;;;5093172;28;20094;-55
2021/03/07 00:16:35;;;;;;;8.43;3.10;;;;;;;;;;5093201;28;20024;-55
2021/03/07 00:19:02;;;;;;;6.33;3.07;;;;;;;;;;5093094;28;20055;-55
2021/03/07 00:21:28;;;;;;;6.97;2.90;;;;;;;;;;5093026;28;20060;-55
2021/03/07 00:23:55;;;;;;;4.57;2.63;;;;;;;;;;5093103;28;20024;-55
2021/03/07 00:26:22;;;;;;;7.00;3.10;;;;;;;;;;5092971;28;20020;-55
2021/03/07 00:28:49;;;;;;;4.87;2.80;;;;;;;;;;5093003;28;20048;-55
2021/03/07 00:31:24;;;;;;;4.23;2.87;;;;;;;;;;5092930;28;20079;-55
2021/03/07 00:33:57;;;;;;;8.57;3.07;;;;;;;;;;5093399;28;20048;-55
2021/03/07 00:36:24;;;;;;;4.97;2.73;;;;;;;;;;5093222;28;20051;-55
2021/03/07 00:38:51;;;;;;;4.80;3.00;;;;;;;;;;5092975;28;20028;-55
2021/03/07 00:41:17;;;;;;;4.50;2.70;;;;;;;;;;5092799;28;20482;-55
2021/03/07 00:43:44;;;;;;;5.90;3.03;;;;;;;;;;5074716;28;20028;-55
2021/03/07 00:46:11;;;;;;;4.37;2.30;;;;;;;;;;5092894;28;20028;-55
2021/03/07 00:48:38;;;;;;;10.10;3.20;;;;;;;;;;5092740;28;20462;-55
2021/03/07 00:51:05;;;;;;;3.67;2.20;;;;;;;;;;5092905;28;20031;-55
2021/03/07 00:53:31;;;;;;;3.23;2.33;;;;;;;;;;5092692;28;20024;-55
2021/03/07 00:55:58;;;;;;;5.20;3.50;;;;;;;;;;5092711;28;20024;-55
2021/03/07 00:58:25;;;;;;;9.77;2.80;;;;;;;;;;5092668;28;20032;-54
2021/03/07 01:00:52;;;;;;;4.27;2.40;;;;;;;;;;5092614;28;20089;-55
2021/03/07 01:03:19;;;;;;;4.67;2.80;;;;;;;;;;5092694;28;20028;-55
2021/03/07 01:05:45;;;;;;;9.43;3.60;;;;;;;;;;5092617;28;20406;-55
2021/03/07 01:08:12;;;;;;;6.50;3.13;;;;;;;;;;5092713;28;20082;-55
2021/03/07 01:10:40;;;;;;;7.63;3.30;;;;;;;;;;5092674;28;20059;-54
2021/03/07 01:13:08;;;;;;;4.00;2.40;;;;;;;;;;5096427;28;20625;-55
2021/03/07 01:15:35;;;;;;;3.30;2.23;;;;;;;;;;5096504;28;20028;-54
2021/03/07 01:18:02;;;;;;;10.93;2.87;;;;;;;;;;5096447;28;20028;-55
2021/03/07 01:20:29;;;;;;;3.10;1.93;;;;;;;;;;5096498;28;20089;-55
2021/03/07 01:22:56;;;;;;;6.03;1.97;;;;;;;;;;5096425;28;20425;-55
2021/03/07 01:25:33;;;;;;;7.87;2.53;;;;;;;;;;5096174;28;20079;-54
2021/03/07 01:28:00;;;;;;;7.30;3.40;;;;;;;;;;5096267;28;20035;-55
2021/03/07 01:30:28;;;;;;;6.13;3.03;;;;;;;;;;5096326;28;20052;-55
2021/03/07 01:33:02;;;;;;;9.40;3.60;;;;;;;;;;5096663;27;20126;-54
2021/03/07 01:35:29;;;;;;;7.13;2.90;;;;;;;;;;5096299;28;20479;-54
2021/03/07 01:37:55;;;;;;;7.20;3.00;;;;;;;;;;5095992;28;20276;-54
2021/03/07 01:40:24;;;;;;;5.37;2.50;;;;;;;;;;5096091;28;20028;-55
2021/03/07 01:42:54;;;;;;;6.53;3.10;;;;;;;;;;5078103;28;20020;-54
2021/03/07 01:45:22;;;;;;;8.60;2.80;;;;;;;;;;5096050;28;20020;-54
2021/03/07 01:47:51;;;;;;;7.70;2.70;;;;;;;;;;5095981;28;20540;-54
2021/03/07 01:50:18;;;;;;;6.27;3.70;;;;;;;;;;5095823;28;20047;-54
2021/03/07 01:52:46;;;;;;;6.73;3.07;;;;;;;;;;5095721;28;20070;-54
2021/03/07 01:55:13;;;;;;;18.00;4.03;;;;;;;;;;5095697;28;20024;-54
2021/03/07 01:57:42;;;;;;;9.70;3.63;;;;;;;;;;5095711;28;20098;-54
2021/03/07 02:00:10;;;;;;;13.67;3.20;;;;;;;;;;5095540;28;20066;-54
2021/03/07 02:02:37;;;;;;;13.70;4.27;;;;;;;;;;5095749;28;20091;-54
2021/03/07 02:05:08;;;;;;;10.03;3.13;;;;;;;;;;5095431;28;20024;-54
2021/03/07 02:07:35;;;;;;;5.40;2.93;;;;;;;;;;5095509;28;20019;-54
2021/03/07 02:10:04;;;;;;;11.43;3.53;;;;;;;;;;5095531;28;20024;-54
2021/03/07 02:12:31;;;;;;;10.93;3.67;;;;;;;;;;5095491;28;20028;-54
2021/03/07 02:14:58;;;;;;;10.07;3.80;;;;;;;;;;5095295;28;20466;-54
2021/03/07 02:17:25;;;;;;;10.73;3.20;;;;;;;;;;5095399;28;20028;-54
2021/03/07 02:19:52;;;;;;;5.07;2.93;;;;;;;;;;5095241;28;20115;-54
2021/03/07 02:22:57;;;;;;;4.73;2.70;;;;;;;;;;5095229;28;20024;-54
2021/03/07 02:25:24;;;;;;;7.30;3.08;;;;;;;;;;5012832;28;20034;-54
2021/03/07 02:27:51;;;;;;;5.17;2.50;;;;;;;;;;5012850;28;20140;-54
2021/03/07 02:30:18;;;;;;;7.73;2.40;;;;;;;;;;5052835;28;20039;-54
2021/03/07 02:32:47;;;;;;;4.37;1.90;;;;;;;;;;5095971;27;20016;-55
2021/03/07 02:35:15;;;;;;;3.67;1.73;;;;;;;;;;5095005;28;20036;-54
2021/03/07 02:37:45;;;;;;;8.27;2.00;;;;;;;;;;5095078;28;20378;-54
2021/03/07 02:40:13;;;;;;;6.73;2.13;;;;;;;;;;5095016;28;20032;-54
2021/03/07 02:42:40;;;;;;;2.53;1.30;;;;;;;;;;5094960;28;20355;-54
2021/03/07 02:45:09;;;;;;;8.60;2.30;;;;;;;;;;5094819;28;20115;-54
2021/03/07 02:47:37;;;;;;;5.10;1.80;;;;;;;;;;5094721;28;20016;-54
2021/03/07 02:50:10;;;;;;;5.30;2.07;;;;;;;;;;5094970;28;20050;-54
2021/03/07 02:52:37;;;;;;;5.67;2.10;;;;;;;;;;5094711;28;20095;-54
2021/03/07 02:55:05;;;;;;;3.37;2.10;;;;;;;;;;5094593;28;20020;-54
2021/03/07 02:57:32;;;;;;;6.20;1.63;;;;;;;;;;5094586;28;20020;-54
2021/03/07 02:59:59;;;;;;;4.90;1.97;;;;;;;;;;5094570;28;20039;-54
2021/03/07 03:02:29;;;;;;;6.43;2.07;;;;;;;;;;5094455;28;20024;-54
2021/03/07 03:04:57;;;;;;;3.43;1.90;;;;;;;;;;5094643;28;20024;-54
2021/03/07 03:07:25;;;;;;;4.63;2.60;;;;;;;;;;5094465;28;20024;-54
2021/03/07 03:09:52;;;;;;;3.10;1.80;;;;;;;;;;5094260;28;20089;-54
2021/03/07 03:12:19;;;;;;;5.93;1.87;;;;;;;;;;5094387;28;20028;-54
2021/03/07 03:14:47;;;;;;;7.70;2.30;;;;;;;;;;5094479;28;20097;-54
2021/03/07 03:17:16;;;;;;;6.00;2.00;;;;;;;;;;5094056;28;20027;-54
2021/03/07 03:19:44;;;;;;;2.97;2.10;;;;;;;;;;5093970;28;20035;-54
2021/03/07 03:22:12;;;;;;;7.53;2.37;;;;;;;;;;5094125;28;20378;-53
2021/03/07 03:24:39;;;;;;;3.07;1.80;;;;;;;;;;5093860;28;20489;-53
2021/03/07 03:27:06;;;;;;;10.33;2.30;;;;;;;;;;5093962;28;20487;-55
2021/03/07 03:29:33;;;;;;;3.97;1.80;;;;;;;;;;5093815;28;20103;-53
2021/03/07 03:32:00;;;;;;;2.67;1.50;;;;;;;;;;5094003;28;20099;-54
2021/03/07 03:34:27;;;;;;;6.37;2.23;;;;;;;;;;5093834;27;20071;-54
2021/03/07 03:36:54;;;;;;;4.20;1.90;;;;;;;;;;5093455;28;20027;-53
2021/03/07 03:39:22;;;;;;;4.57;1.73;;;;;;;;;;5093734;28;20058;-53
2021/03/07 03:41:50;;;;;;;5.33;2.17;;;;;;;;;;5093848;28;20121;-53
2021/03/07 03:44:20;;;;;;;5.23;2.00;;;;;;;;;;5093602;28;20039;-53
2021/03/07 03:46:48;;;;;;;3.70;1.90;;;;;;;;;;5093684;28;20016;-53
2021/03/07 03:49:18;;;;;;;3.77;1.80;;;;;;;;;;5093954;28;20078;-53
2021/03/07 03:51:46;;;;;;;2.57;1.67;;;;;;;;;;5093476;28;20352;-53
2021/03/07 03:54:13;;;;;;;4.67;1.57;;;;;;;;;;5093549;28;20016;-53
2021/03/07 03:56:40;;;;;;;6.60;2.07;;;;;;;;;;5093545;28;20343;-53
2021/03/07 03:59:08;;;;;;;6.67;2.07;;;;;;;;;;5093447;28;20042;-53
2021/03/07 04:01:37;;;;;;;3.20;1.90;;;;;;;;;;5093370;28;20084;-53
2021/03/07 04:04:04;;;;;;;6.63;2.00;;;;;;;;;;5075173;28;20024;-53
2021/03/07 04:06:31;;;;;;;10.93;2.13;;;;;;;;;;5093361;28;20383;-53
2021/03/07 04:08:58;;;;;;;5.87;2.10;;;;;;;;;;5093360;28;20425;-53
2021/03/07 04:11:25;;;;;;;5.63;2.20;;;;;;;;;;5093102;28;20032;-53
2021/03/07 04:13:53;;;;;;;5.53;2.37;;;;;;;;;;5093226;28;20133;-53
2021/03/07 04:16:20;;;;;;;3.60;2.07;;;;;;;;;;5093188;28;20012;-53
2021/03/07 04:18:47;;;;;;;4.90;2.27;;;;;;;;;;5093122;28;20035;-53
2021/03/07 04:21:14;;;;;;;5.77;2.03;;;;;;;;;;5093168;28;20020;-53
2021/03/07 04:23:41;;;;;;;3.43;2.00;;;;;;;;;;5093709;28;20028;-53
2021/03/07 04:26:08;;;;;;;3.90;1.97;;;;;;;;;;5092952;28;20039;-53
2021/03/07 04:28:35;;;;;;;6.10;2.20;;;;;;;;;;5093111;28;20030;-53
2021/03/07 04:31:02;;;;;;;4.83;2.00;;;;;;;;;;5093039;28;20082;-53
2021/03/07 04:33:29;;;;;;;4.17;2.20;;;;;;;;;;5093659;28;20437;-53
2021/03/07 04:35:56;;;;;;;4.20;1.97;;;;;;;;;;5093094;28;20066;-53
2021/03/07 04:38:23;;;;;;;5.17;2.20;;;;;;;;;;5092826;28;20470;-53
2021/03/07 04:40:50;;;;;;;3.83;2.07;;;;;;;;;;5093239;28;20032;-53
2021/03/07 04:43:19;;;;;;;2.90;2.00;;;;;;;;;;5092819;28;20039;-53
2021/03/07 04:45:45;;;;;;;3.73;2.00;;;;;;;;;;5092883;28;20035;-53
2021/03/07 04:48:12;;;;;;;7.10;2.60;;;;;;;;;;5097123;28;20028;-53
2021/03/07 04:50:39;;;;;;;2.50;1.70;;;;;;;;;;5097053;28;20515;-53
2021/03/07 04:53:06;;;;;;;5.60;2.40;;;;;;;;;;5096910;28;20032;-53
2021/03/07 04:55:33;;;;;;;4.83;2.20;;;;;;;;;;5078997;28;20016;-53
2021/03/07 04:58:00;;;;;;;5.30;2.13;;;;;;;;;;5096742;28;20028;-53
2021/03/07 05:00:27;;;;;;;3.77;1.63;;;;;;;;;;5096838;28;20032;-53
2021/03/07 05:02:53;;;;;;;3.83;2.00;;;;;;;;;;5096696;28;20111;-53
2021/03/07 05:05:20;;;;;;;10.83;2.80;;;;;;;;;;5096814;28;20039;-53
2021/03/07 05:07:47;;;;;;;4.90;2.20;;;;;;;;;;5096832;28;20055;-53
2021/03/07 05:10:14;;;;;;;4.80;2.20;;;;;;;;;;5096617;28;20059;-53
2021/03/07 05:12:41;;;;;;;4.50;2.20;;;;;;;;;;5096597;28;20028;-54
2021/03/07 05:15:08;;;;;;;5.80;2.53;;;;;;;;;;5096596;28;20414;-54
2021/03/07 05:17:36;;;;;;;5.97;2.87;;;;;;;;;;5096515;28;20021;-54
2021/03/07 05:20:06;;;;;;;5.10;2.43;;;;;;;;;;5096252;28;20036;-53
2021/03/07 05:22:33;;;;;;;3.10;1.90;;;;;;;;;;5095453;28;20113;-53
2021/03/07 05:25:00;;;;;;;4.03;2.03;;;;;;;;;;5096024;28;20032;-54
2021/03/07 05:27:27;;;;;;;4.20;2.10;;;;;;;;;;5096130;28;20040;-54
2021/03/07 05:29:53;;;;;;;3.43;1.87;;;;;;;;;;5096327;28;20114;-53
2021/03/07 05:32:20;;;;;;;3.90;2.00;;;;;;;;;;5096227;28;20032;-54
2021/03/07 05:34:47;;;;;;;4.43;2.27;;;;;;;;;;5096976;28;20051;-54
2021/03/07 05:37:14;;;;;;;3.60;2.00;;;;;;;;;;5096150;28;20032;-54
2021/03/07 05:39:41;;;;;;;7.80;2.03;;;;;;;;;;5096143;28;20070;-54
2021/03/07 05:42:08;;;;;;;6.17;2.63;;;;;;;;;;5096046;28;20035;-54
2021/03/07 05:44:36;;;;;;;3.33;1.90;;;;;;;;;;5095953;28;20116;-54
2021/03/07 05:47:03;;;;;;;4.83;1.80;;;;;;;;;;5095887;28;20025;-54
2021/03/07 05:49:29;;;;;;;3.70;2.13;;;;;;;;;;5095976;28;20122;-54
2021/03/07 05:51:56;;;;;;;4.63;2.47;;;;;;;;;;5095777;28;20395;-54
2021/03/07 05:54:30;;;;;;;7.47;2.97;;;;;;;;;;5095672;28;20039;-53
2021/03/07 05:56:57;;;;;;;5.30;2.30;;;;;;;;;;5095872;28;20024;-54
2021/03/07 05:59:24;;;;;;;5.13;1.97;;;;;;;;;;5094425;28;20039;-53
2021/03/07 06:01:51;;;;;;;4.07;2.30;;;;;;;;;;5095596;28;20467;-54
2021/03/07 06:04:18;;;;;;;4.60;2.53;;;;;;;;;;5095599;28;20047;-54
2021/03/07 06:06:44;;;;;;;4.40;2.20;;;;;;;;;;5095595;28;20074;-54
2021/03/07 06:09:18;;;;;;;7.87;2.17;;;;;;;;;;5095550;28;20035;-53
2021/03/07 06:11:46;;;;;;;5.03;2.30;;;;;;;;;;5095563;28;20028;-54
2021/03/07 06:14:26;;;;;;;4.67;2.50;;;;;;;;;;5095356;28;20510;-53
2021/03/07 06:17:00;;;;;;;4.70;2.53;;;;;;;;;;5095470;28;20103;-54
2021/03/07 06:19:27;;;;;;;5.60;2.30;;;;;;;;;;5095304;28;20124;-53
2021/03/07 06:21:54;;;;;;;4.43;2.30;;;;;;;;;;5077247;28;20474;-53
2021/03/07 06:24:34;;;;;;;4.57;2.73;;;;;;;;;;5095035;28;20059;-54
2021/03/07 06:27:08;;;;;;;6.53;2.17;;;;;;;;;;5095154;28;20107;-53
2021/03/07 06:29:37;;;;;;;8.80;2.63;;;;;;;;;;5095249;28;20493;-54
2021/03/07 06:32:16;;;;;;;3.63;2.33;;;;;;;;;;5095157;28;20281;-53
2021/03/07 06:34:44;;;;;;;4.17;2.03;;;;;;;;;;5095674;27;20048;-54
2021/03/07 06:37:10;;;;;;;3.77;1.80;;;;;;;;;;5095110;28;20028;-53
2021/03/07 06:39:37;;;;;;;3.57;1.90;;;;;;;;;;5095257;28;20052;-54
2021/03/07 06:42:05;;;;;;;5.73;2.60;;;;;;;;;;5094925;28;20479;-54
2021/03/07 06:44:32;;;;;;;7.40;2.63;;;;;;;;;;5094799;28;20347;-54
2021/03/07 06:47:12;;;;;;;3.90;2.20;;;;;;;;;;5095028;28;20024;-53
2021/03/07 06:49:40;;;;;;;3.77;2.17;;;;;;;;;;5094794;28;20032;-54
2021/03/07 06:52:16;;;;;;;6.73;2.30;;;;;;;;;;5094681;28;20738;-54
2021/03/07 06:54:43;;;;;;;6.00;2.33;;;;;;;;;;5094721;28;20293;-53
2021/03/07 06:57:10;;;;;;;6.13;2.60;;;;;;;;;;5094659;28;20051;-54
2021/03/07 06:59:37;;;;;;;6.00;2.53;;;;;;;;;;5094448;28;20295;-53
2021/03/07 07:02:10;;;;;;;5.97;2.60;;;;;;;;;;5094418;28;20055;-53
2021/03/07 07:04:42;;;;;;;5.77;2.10;;;;;;;;;;5094408;28;20603;-53
2021/03/07 07:07:11;;;;;;;3.83;2.40;;;;;;;;;;5094349;28;20291;-53
2021/03/07 07:09:37;;;;;;;4.13;2.07;;;;;;;;;;5094389;28;20028;-53
2021/03/07 07:12:06;;;;;;;6.73;2.30;;;;;;;;;;5094334;28;20260;-53
2021/03/07 07:14:42;;;;;;;6.47;2.40;;;;;;;;;;5094273;28;20603;-54
2021/03/07 07:17:13;;;;;;;4.93;2.40;;;;;;;;;;5094217;28;20722;-53
2021/03/07 07:19:40;;;;;;;5.10;2.50;;;;;;;;;;5094419;28;20292;-53
2021/03/07 07:22:07;;;;;;;3.60;1.60;;;;;;;;;;5094160;28;20248;-54
2021/03/07 07:24:34;;;;;;;5.53;2.33;;;;;;;;;;5094033;28;20307;-53
2021/03/07 07:27:01;;;;;;;8.17;2.73;;;;;;;;;;5094088;28;20264;-53
2021/03/07 07:29:28;;;;;;;4.73;2.40;;;;;;;;;;5094009;28;20271;-53
2021/03/07 07:32:01;;;;;;;3.67;2.07;;;;;;;;;;5093953;28;20303;-53
2021/03/07 07:34:37;;;;;;;19.37;3.43;;;;;;;;;;5094508;28;20287;-53
2021/03/07 07:37:09;;;;;;;6.63;2.20;;;;;;;;;;5093850;28;20342;-53
2021/03/07 07:39:38;;;;;;;3.57;1.93;;;;;;;;;;5093766;28;20766;-53
2021/03/07 07:42:22;;;;;;;7.37;2.13;;;;;;;;;;5093793;28;20252;-53
2021/03/07 07:44:49;;;;;;;6.47;1.80;;;;;;;;;;5093821;28;20248;-53
2021/03/07 07:47:16;;;;;;;4.43;2.13;;;;;;;;;;5093646;28;20247;-53
2021/03/07 07:49:47;;;;;;;3.47;2.10;;;;;;;;;;5093573;28;20518;-53
2021/03/07 07:52:26;;;;;;;3.27;2.17;;;;;;;;;;5093587;28;20249;-53
2021/03/07 07:54:58;;;;;;;4.50;2.23;;;;;;;;;;5093501;28;20611;-53
2021/03/07 07:57:35;;;;;;;2.77;1.70;;;;;;;;;;5093720;28;20294;-53
2021/03/07 08:00:12;;;;;;;7.00;2.53;;;;;;;;;;5093326;28;20334;-53
2021/03/07 08:02:47;;;;;;;5.10;1.97;;;;;;;;;;5093328;28;20318;-53
2021/03/07 08:05:20;;;;;;;3.43;2.20;;;;;;;;;;5093457;28;20253;-53
2021/03/07 08:07:56;;;;;;;5.73;3.07;;;;;;;;;;5093462;28;20251;-53
2021/03/07 08:10:39;;;;;;;3.67;2.07;;;;;;;;;;5093175;28;20585;-53
2021/03/07 08:13:06;;;;;;;4.13;2.37;;;;;;;;;;5093254;28;20252;-53
2021/03/07 08:15:34;;;;;;;3.23;1.90;;;;;;;;;;5093867;28;20256;-53
2021/03/07 08:18:04;;;;;;;6.03;2.27;;;;;;;;;;5093362;28;20249;-53
2021/03/07 08:20:44;;;;;;;4.40;2.00;;;;;;;;;;5092821;28;20269;-53
2021/03/07 08:23:14;;;;;;;5.13;2.20;;;;;;;;;;5092933;28;20303;-53
2021/03/07 08:25:49;;;;;;;3.23;1.63;;;;;;;;;;5092955;28;20257;-53
2021/03/07 08:28:28;;;;;;;4.10;1.90;;;;;;;;;;5093005;28;20287;-53
2021/03/07 08:30:59;;;;;;;5.53;2.00;;;;;;;;;;5092982;28;20257;-53
2021/03/07 08:33:26;;;;;;;3.80;2.00;;;;;;;;;;5093159;28;20248;-54
2021/03/07 08:36:11;;;;;;;4.17;2.23;;;;;;;;;;5092716;28;20256;-53
2021/03/07 08:38:38;;;;;;;5.68;2.25;;;;;;;;;;5092991;28;20303;-53
2021/03/07 08:41:05;;;;;;;4.33;2.03;;;;;;;;;;5093045;28;20024;-53
2021/03/07 08:43:32;;;;;;;3.43;2.00;;;;;;;;;;5092876;28;20249;-53
2021/03/07 08:46:02;;;;;;;7.63;2.00;;;;;;;;;;5092886;28;20249;-53
2021/03/07 08:48:30;;;;;;;7.20;2.03;;;;;;;;;;5092758;28;20255;-53
2021/03/07 08:50:57;;;;;;;4.00;2.17;;;;;;;;;;5092768;28;20649;-53
2021/03/07 08:53:25;;;;;;;3.90;1.77;;;;;;;;;;5092676;28;20249;-53
2021/03/07 08:55:51;;;;;;;6.70;2.40;;;;;;;;;;5092802;28;20260;-53
2021/03/07 08:58:19;;;;;;;5.77;2.23;;;;;;;;;;5092586;28;20256;-53
2021/03/07 09:00:52;;;;;;;4.13;2.60;;;;;;;;;;5092820;28;20275;-53
2021/03/07 09:03:20;;;;;;;5.37;2.43;;;;;;;;;;5092520;28;20335;-53
2021/03/07 09:05:48;;;;;;;4.03;2.03;;;;;;;;;;5074520;28;20743;-53
2021/03/07 09:08:15;;;;;;;4.50;2.17;;;;;;;;;;5092647;28;20277;-53
2021/03/07 09:10:46;;;;;;;5.67;2.50;;;;;;;;;;5092667;28;20763;-53
2021/03/07 09:13:15;;;;;;;7.50;2.30;;;;;;;;;;5092595;28;20288;-53
2021/03/07 09:15:53;;;;;;;4.97;2.73;;;;;;;;;;5092538;28;20263;-53
2021/03/07 09:18:20;;;;;;;4.13;1.97;;;;;;;;;;5092566;28;20280;-53
2021/03/07 09:20:53;;;;;;;7.03;1.90;;;;;;;;;;5092587;28;20265;-53
2021/03/07 09:23:26;;;;;;;4.40;2.53;;;;;;;;;;5092277;28;20257;-53
2021/03/07 09:25:52;;;;;;;4.13;1.93;;;;;;;;;;5092314;28;20743;-53
2021/03/07 09:28:29;;;;;;;3.97;1.80;;;;;;;;;;5092479;28;20255;-53
2021/03/07 09:30:57;;;;;;;3.93;1.80;;;;;;;;;;5092496;28;20751;-53
2021/03/07 09:33:23;;;;;;;3.00;1.90;;;;;;;;;;5095033;28;20253;-53
2021/03/07 09:35:59;;;;;;;3.33;2.00;;;;;;;;;;5095700;28;20285;-53
2021/03/07 09:38:38;;;;;;;3.60;2.00;;;;;;;;;;5096120;28;20600;-53
2021/03/07 09:41:05;;;;;;;5.13;2.20;;;;;;;;;;5096111;28;20257;-53
2021/03/07 09:43:32;;;;;;;4.63;2.30;;;;;;;;;;5095967;28;20256;-53
2021/03/07 09:45:59;;;;;;;3.23;2.00;;;;;;;;;;5096089;28;20261;-53
2021/03/07 09:48:33;;;;;;;4.60;2.00;;;;;;;;;;5096026;28;20248;-53
2021/03/07 09:51:01;;;;;;;3.95;2.03;;;;;;;;;;5077803;28;20840;-54
2021/03/07 09:53:28;;;;;;;4.23;2.07;;;;;;;;;;5095825;28;20087;-55
2021/03/07 09:55:54;;;;;;;4.60;2.30;;;;;;;;;;5095910;28;20264;-54
2021/03/07 09:58:21;;;;;;;3.10;2.03;;;;;;;;;;5095741;28;20348;-53
2021/03/07 10:00:52;;;;;;;4.37;2.10;;;;;;;;;;5095960;28;20297;-53
2021/03/07 10:03:20;;;;;;;4.17;2.23;;;;;;;;;;5095589;28;20303;-53
2021/03/07 10:06:13;;;;;;;2.33;1.43;;;;;;;;;;5095497;28;20260;-53
2021/03/07 10:08:41;;;;;;;2.57;1.50;;;;;;;;;;5092233;28;20296;-53
2021/03/07 10:11:09;;;;;;;3.77;2.10;;;;;;;;;;5095540;28;20331;-53
2021/03/07 10:13:35;;;;;;;3.47;2.27;;;;;;;;;;5095552;28;20263;-53
2021/03/07 10:16:02;;;;;;;8.80;2.77;;;;;;;;;;5095510;28;20256;-53
2021/03/07 10:18:36;;;;;;;4.67;2.20;;;;;;;;;;5095225;28;20276;-53
2021/03/07 10:21:04;;;;;;;3.60;1.90;;;;;;;;;;5095650;28;20276;-53
2021/03/07 10:23:34;;;;;;;4.27;2.30;;;;;;;;;;5095251;28;20723;-53
2021/03/07 10:26:02;;;;;;;3.37;1.80;;;;;;;;;;5095127;28;20626;-53
2021/03/07 10:28:30;;;;;;;5.10;2.17;;;;;;;;;;5095106;28;20261;-53
2021/03/07 10:31:07;;;;;;;3.70;1.87;;;;;;;;;;5095237;28;20259;-53
2021/03/07 10:33:33;;;;;;;4.00;2.20;;;;;;;;;;5095948;27;20295;-53
2021/03/07 10:36:03;;;;;;;5.50;2.00;;;;;;;;;;5094910;28;20612;-53
2021/03/07 10:38:31;;;;;;;3.77;2.03;;;;;;;;;;5094919;28;20276;-53
2021/03/07 10:40:58;;;;;;;4.27;2.07;;;;;;;;;;5095053;28;20268;-53
2021/03/07 10:43:25;;;;;;;7.37;2.00;;;;;;;;;;5094748;28;20248;-53
2021/03/07 10:45:52;;;;;;;4.80;2.37;;;;;;;;;;5094355;28;20288;-53
2021/03/07 10:48:19;;;;;;;3.10;1.73;;;;;;;;;;5094734;28;20607;-53
2021/03/07 10:50:51;;;;;;;5.27;2.60;;;;;;;;;;5094847;28;20330;-53
2021/03/07 10:53:19;;;;;;;4.83;2.57;;;;;;;;;;5094880;28;20256;-53
2021/03/07 10:55:52;;;;;;;3.40;2.20;;;;;;;;;;5094683;28;20260;-53
2021/03/07 10:58:20;;;;;;;3.43;1.80;;;;;;;;;;5094442;28;20800;-53
2021/03/07 11:00:46;;;;;;;4.27;2.33;;;;;;;;;;5094501;28;20268;-53
2021/03/07 11:03:13;;;;;;;5.93;2.00;;;;;;;;;;5094501;28;20255;-53
2021/03/07 11:05:40;;;;;;;4.33;2.43;;;;;;;;;;5094467;28;20680;-53
2021/03/07 11:08:07;;;;;;;6.80;2.77;;;;;;;;;;5094478;28;20723;-53
2021/03/07 11:10:34;;;;;;;4.70;2.17;;;;;;;;;;5094398;28;20332;-53
2021/03/07 11:13:00;;;;;;;6.63;2.60;;;;;;;;;;5094321;28;20280;-53
2021/03/07 11:15:27;;;;;;;5.10;2.33;;;;;;;;;;5094387;28;20813;-53
2021/03/07 11:17:54;;;;;;;6.47;2.50;;;;;;;;;;5094170;28;20280;-53
2021/03/07 11:20:21;;;;;;;6.47;2.50;;;;;;;;;;5094272;28;20291;-53
2021/03/07 11:22:48;;;;;;;4.70;2.40;;;;;;;;;;5094156;28;20344;-53
2021/03/07 11:25:15;;;;;;;6.53;2.50;;;;;;;;;;5094000;28;20340;-53
2021/03/07 11:27:41;;;;;;;5.33;2.57;;;;;;;;;;5094123;28;20256;-53
2021/03/07 11:30:09;;;;;;;5.67;2.77;;;;;;;;;;5094116;28;20313;-53
2021/03/07 11:32:35;;;;;;;6.30;2.57;;;;;;;;;;5093972;28;20256;-53
2021/03/07 11:35:02;;;;;;;5.50;3.23;;;;;;;;;;5094666;28;20284;-53
2021/03/07 11:37:29;;;;;;;4.87;2.73;;;;;;;;;;5093741;28;20249;-53
2021/03/07 11:39:56;;;;;;;3.90;2.30;;;;;;;;;;5093685;28;20288;-53
2021/03/07 11:42:23;;;;;;;4.07;2.47;;;;;;;;;;5093740;28;20256;-53
2021/03/07 11:44:49;;;;;;;4.30;2.40;;;;;;;;;;5093853;28;20743;-53
2021/03/07 11:47:16;;;;;;;4.70;2.87;;;;;;;;;;5093646;28;20300;-53
2021/03/07 11:49:43;;;;;;;5.77;2.77;;;;;;;;;;5093622;28;20735;-53
2021/03/07 11:52:10;;;;;;;4.87;2.40;;;;;;;;;;5093475;28;20739;-53
2021/03/07 11:54:38;;;;;;;5.77;2.77;;;;;;;;;;5093362;28;20280;-53
2021/03/07 11:57:05;;;;;;;8.50;2.73;;;;;;;;;;5092716;28;20307;-53
2021/03/07 11:59:33;;;;;;;4.07;2.30;;;;;;;;;;5093482;28;20292;-53
2021/03/07 12:02:00;;;;;;;3.80;2.27;;;;;;;;;;5093353;28;20291;-53
2021/03/07 12:04:27;;;;;;;4.40;2.10;;;;;;;;;;5093379;28;20619;-53
2021/03/07 12:06:54;;;;;;;8.13;2.20;;;;;;;;;;5093627;28;20608;-53
2021/03/07 12:09:21;;;;;;;3.60;2.10;;;;;;;;;;5093289;28;20265;-53
2021/03/07 12:11:47;;;;;;;6.13;3.13;;;;;;;;;;5093207;28;20256;-53
2021/03/07 12:14:14;;;;;;;4.13;2.23;;;;;;;;;;5093177;28;20264;-53
2021/03/07 12:16:41;;;;;;;4.27;2.17;;;;;;;;;;5093208;28;20339;-53
2021/03/07 12:19:08;;;;;;;7.67;2.90;;;;;;;;;;5093171;28;20280;-53
2021/03/07 12:21:34;;;;;;;3.90;2.27;;;;;;;;;;5093264;28;20256;-53
2021/03/07 12:24:01;;;;;;;5.67;2.70;;;;;;;;;;5092944;28;20280;-53
2021/03/07 12:26:28;;;;;;;4.67;2.40;;;;;;;;;;5093417;28;20256;-53
2021/03/07 12:28:55;;;;;;;8.37;2.87;;;;;;;;;;5093073;28;20253;-53
2021/03/07 12:31:22;;;;;;;5.23;2.60;;;;;;;;;;5093037;28;20248;-53
2021/03/07 12:33:48;;;;;;;6.07;2.30;;;;;;;;;;5093500;28;20753;-53
2021/03/07 12:36:15;;;;;;;7.97;2.63;;;;;;;;;;5092991;28;20759;-53
2021/03/07 12:38:42;;;;;;;9.40;3.40;;;;;;;;;;5092977;28;20831;-53
2021/03/07 12:41:09;;;;;;;5.70;2.30;;;;;;;;;;5093012;28;20257;-53
2021/03/07 12:43:35;;;;;;;4.10;2.27;;;;;;;;;;5092904;28;20264;-53
2021/03/07 12:46:02;;;;;;;6.37;2.43;;;;;;;;;;5092866;28;20288;-53
2021/03/07 12:48:29;;;;;;;5.80;2.70;;;;;;;;;;5092856;28;20252;-53
2021/03/07 12:50:56;;;;;;;4.43;2.30;;;;;;;;;;5092761;28;20253;-53
2021/03/07 12:53:23;;;;;;;4.67;2.57;;;;;;;;;;5093048;28;20596;-53
2021/03/07 12:55:49;;;;;;;4.50;2.33;;;;;;;;;;5092871;28;20253;-53
2021/03/07 12:58:16;;;;;;;4.60;2.67;;;;;;;;;;5092714;28;20311;-53
2021/03/07 13:00:43;;;;;;;10.17;3.00;;;;;;;;;;5092787;28;20269;-53
2021/03/07 13:03:10;;;;;;;5.73;2.73;;;;;;;;;;5092699;28;20270;-53
2021/03/07 13:05:36;;;;;;;8.07;2.67;;;;;;;;;;5092641;28;20256;-53
2021/03/07 13:08:03;;;;;;;6.77;2.70;;;;;;;;;;5094771;28;20608;-53
2021/03/07 13:10:30;;;;;;;5.83;2.50;;;;;;;;;;5096745;28;20283;-53
2021/03/07 13:12:57;;;;;;;4.60;2.40;;;;;;;;;;5096693;28;20252;-55
2021/03/07 13:15:24;;;;;;;9.90;2.57;;;;;;;;;;5096623;28;20262;-53
2021/03/07 13:17:50;;;;;;;6.03;2.90;;;;;;;;;;5096651;28;20252;-55
2021/03/07 13:20:17;;;;;;;4.83;2.87;;;;;;;;;;5096462;28;20289;-55
2021/03/07 13:22:44;;;;;;;7.57;3.03;;;;;;;;;;5096566;28;20331;-55
2021/03/07 13:25:11;;;;;;;8.67;3.47;;;;;;;;;;5096353;28;20654;-56
2021/03/07 13:27:38;;;;;;;8.20;3.80;;;;;;;;;;5096395;28;20252;-55
2021/03/07 13:30:07;;;;;;;6.20;3.53;;;;;;;;;;5096404;28;20257;-53
2021/03/07 13:32:34;;;;;;;14.80;3.87;;;;;;;;;;5096253;28;20253;-53
2021/03/07 13:35:00;;;;;;;11.70;3.97;;;;;;;;;;5097114;27;20402;-53
2021/03/07 13:37:27;;;;;;;11.93;5.13;;;;;;;;;;5096210;28;20252;-53
2021/03/07 13:39:54;;;;;;;12.03;5.43;;;;;;;;;;5096090;28;20346;-53
2021/03/07 13:42:21;;;;;;;8.50;4.27;;;;;;;;;;5096099;28;20249;-53
2021/03/07 13:44:48;;;;;;;16.47;5.10;;;;;;;;;;5096105;28;20820;-53
2021/03/07 13:47:14;;;;;;;13.47;5.77;;;;;;;;;;5095988;28;20774;-54
2021/03/07 13:49:41;;;;;;;12.10;6.03;;;;;;;;;;5095941;28;20241;-54
2021/03/07 13:52:08;;;;;;;17.77;6.53;;;;;;;;;;5096015;28;20378;-54
2021/03/07 13:54:35;;;;;;;18.63;6.23;;;;;;;;;;5095871;28;20244;-54
2021/03/07 13:57:01;;;;;;;15.03;5.20;;;;;;;;;;5095785;28;20355;-54
2021/03/07 13:59:28;;;;;;;14.53;5.00;;;;;;;;;;5095628;28;20284;-54
2021/03/07 14:01:57;;;;;;;12.63;5.10;;;;;;;;;;5095788;28;20256;-54
2021/03/07 14:04:24;;;;;;;16.20;6.73;;;;;;;;;;5095659;28;20260;-54
2021/03/07 14:06:51;;;;;;;6.47;3.27;;;;;;;;;;5077493;28;20271;-54
2021/03/07 14:09:18;;;;;;;4.83;2.90;;;;;;;;;;5095563;28;20699;-54
2021/03/07 14:11:45;;;;;;;5.00;2.67;;;;;;;;;;5095469;28;20257;-54
2021/03/07 14:14:12;;;;;;;6.67;2.70;;;;;;;;;;5095418;28;20257;-54
2021/03/07 14:16:39;;;;;;;4.97;2.20;;;;;;;;;;5095408;28;20731;-54
2021/03/07 14:19:05;;;;;;;3.70;1.97;;;;;;;;;;5094461;28;20476;-54
2021/03/07 14:21:32;;;;;;;5.93;2.70;;;;;;;;;;5095352;28;20024;-54
2021/03/07 14:23:59;;;;;;;7.47;3.37;;;;;;;;;;5095295;28;20024;-54
2021/03/07 14:26:26;;;;;;;6.47;2.80;;;;;;;;;;5095363;28;20028;-54
2021/03/07 14:28:53;;;;;;;4.40;2.80;;;;;;;;;;5095185;28;20470;-54
2021/03/07 14:31:20;;;;;;;7.73;2.63;;;;;;;;;;5095201;28;20020;-54
2021/03/07 14:33:46;;;;;;;6.67;2.90;;;;;;;;;;5095081;28;20424;-55
2021/03/07 14:36:13;;;;;;;6.13;3.30;;;;;;;;;;5096080;27;20545;-55
2021/03/07 14:38:46;;;;;;;9.57;3.17;;;;;;;;;;5095274;28;20032;-55
2021/03/07 14:41:13;;;;;;;4.40;2.90;;;;;;;;;;5094987;28;20047;-55
2021/03/07 14:43:39;;;;;;;4.17;2.40;;;;;;;;;;5094865;28;20025;-55
2021/03/07 14:46:06;;;;;;;6.93;2.83;;;;;;;;;;5094914;28;20102;-55
2021/03/07 14:48:33;;;;;;;4.57;2.50;;;;;;;;;;5094886;28;20241;-55
2021/03/07 14:51:00;;;;;;;4.47;2.20;;;;;;;;;;5094779;28;20031;-54